sensor_id;sensor_type;location;lat;lon;timestamp;pressure;altitude;pressure_sealevel;temperature;humidity
49611;BME280;35515;48.766;9.176;2023-02-18T00:02:18;99252.88;;;11.92;80.31
49611;BME280;35515;48.766;9.176;2023-02-18T00:04:44;99256.91;;;11.96;80.04
49611;BME280;35515;48.766;9.176;2023-02-18T00:07:11;99253.59;;;12.00;80.20
49611;BME280;35515;48.766;9.176;2023-02-18T00:09:37;99256.91;;;11.96;79.97
49611;BME280;35515;48.766;9.176;2023-02-18T00:12:04;99264.84;;;11.97;80.05
49611;BME280;35515;48.766;9.176;2023-02-18T00:14:30;99264.97;;;11.89;80.22
49611;BME280;35515;48.766;9.176;2023-02-18T00:16:58;99273.53;;;11.93;80.13
49611;BME280;35515;48.766;9.176;2023-02-18T00:19:24;99281.56;;;12.23;78.59
49611;BME280;35515;48.766;9.176;2023-02-18T00:21:50;99267.63;;;12.04;79.31
49611;BME280;35515;48.766;9.176;2023-02-18T00:24:17;99263.69;;;12.07;79.35
49611;BME280;35515;48.766;9.176;2023-02-18T00:26:43;99259.63;;;11.96;79.71
49611;BME280;35515;48.766;9.176;2023-02-18T00:29:10;99265.38;;;11.93;79.97
49611;BME280;35515;48.766;9.176;2023-02-18T00:31:37;99260.22;;;11.76;80.69
49611;BME280;35515;48.766;9.176;2023-02-18T00:34:05;99259.97;;;11.93;79.45
49611;BME280;35515;48.766;9.176;2023-02-18T00:36:32;99266.72;;;11.97;79.23
49611;BME280;35515;48.766;9.176;2023-02-18T00:39:00;99274.53;;;12.07;79.23
49611;BME280;35515;48.766;9.176;2023-02-18T00:41:27;99266.72;;;11.97;79.09
49611;BME280;35515;48.766;9.176;2023-02-18T00:43:54;99253.38;;;12.02;79.03
49611;BME280;35515;48.766;9.176;2023-02-18T00:46:21;99249.94;;;11.93;79.16
49611;BME280;35515;48.766;9.176;2023-02-18T00:48:48;99242.25;;;11.97;79.09
49611;BME280;35515;48.766;9.176;2023-02-18T00:51:15;99234.63;;;12.07;78.19
49611;BME280;35515;48.766;9.176;2023-02-18T00:53:42;99237.75;;;12.04;78.63
49611;BME280;35515;48.766;9.176;2023-02-18T00:56:08;99245.91;;;12.04;78.65
49611;BME280;35515;48.766;9.176;2023-02-18T00:58:35;99248.00;;;12.09;78.37
49611;BME280;35515;48.766;9.176;2023-02-18T01:01:02;99250.00;;;12.21;77.55
49611;BME280;35515;48.766;9.176;2023-02-18T01:03:28;99242.16;;;12.05;78.51
49611;BME280;35515;48.766;9.176;2023-02-18T01:05:55;99234.91;;;11.91;78.94
49611;BME280;35515;48.766;9.176;2023-02-18T01:08:22;99238.72;;;11.96;78.96
49611;BME280;35515;48.766;9.176;2023-02-18T01:10:51;99238.22;;;11.93;78.90
49611;BME280;35515;48.766;9.176;2023-02-18T01:13:17;99233.00;;;11.91;79.07
49611;BME280;35515;48.766;9.176;2023-02-18T01:15:44;99230.28;;;11.91;79.09
49611;BME280;35515;48.766;9.176;2023-02-18T01:18:11;99220.41;;;12.05;78.14
49611;BME280;35515;48.766;9.176;2023-02-18T01:20:38;99217.31;;;12.08;78.41
49611;BME280;35515;48.766;9.176;2023-02-18T01:23:05;99233.34;;;12.03;78.59
49611;BME280;35515;48.766;9.176;2023-02-18T01:25:33;99224.16;;;12.04;78.11
49611;BME280;35515;48.766;9.176;2023-02-18T01:27:59;99236.13;;;11.88;78.64
49611;BME280;35515;48.766;9.176;2023-02-18T01:30:25;99234.25;;;12.10;77.51
49611;BME280;35515;48.766;9.176;2023-02-18T01:32:52;99232.88;;;11.99;77.96
49611;BME280;35515;48.766;9.176;2023-02-18T01:35:18;99219.72;;;11.96;78.26
49611;BME280;35515;48.766;9.176;2023-02-18T01:37:45;99222.44;;;11.96;78.09
49611;BME280;35515;48.766;9.176;2023-02-18T01:40:13;99219.50;;;11.98;78.15
49611;BME280;35515;48.766;9.176;2023-02-18T01:42:41;99222.63;;;12.23;76.90
49611;BME280;35515;48.766;9.176;2023-02-18T01:47:53;99218.50;;;11.77;78.70
49611;BME280;35515;48.766;9.176;2023-02-18T01:50:19;99221.19;;;11.99;77.71
49611;BME280;35515;48.766;9.176;2023-02-18T01:52:45;99210.34;;;11.99;77.32
49611;BME280;35515;48.766;9.176;2023-02-18T01:55:12;99211.56;;;11.96;77.26
49611;BME280;35515;48.766;9.176;2023-02-18T01:57:38;99203.88;;;12.00;77.09
49611;BME280;35515;48.766;9.176;2023-02-18T02:00:08;99213.56;;;11.87;77.87
49611;BME280;35515;48.766;9.176;2023-02-18T02:02:36;99208.16;;;11.87;77.72
49611;BME280;35515;48.766;9.176;2023-02-18T02:05:04;99207.81;;;11.97;77.46
49611;BME280;35515;48.766;9.176;2023-02-18T02:07:30;99208.16;;;11.87;77.31
49611;BME280;35515;48.766;9.176;2023-02-18T02:09:57;99206.28;;;11.66;78.32
49611;BME280;35515;48.766;9.176;2023-02-18T02:12:29;99196.91;;;11.69;78.76
49611;BME280;35515;48.766;9.176;2023-02-18T02:15:02;99200.25;;;11.71;78.27
49611;BME280;35515;48.766;9.176;2023-02-18T02:17:36;99212.03;;;11.57;79.18
49611;BME280;35515;48.766;9.176;2023-02-18T02:20:09;99207.13;;;11.67;78.54
49611;BME280;35515;48.766;9.176;2023-02-18T02:25:32;99208.00;;;11.74;77.90
49611;BME280;35515;48.766;9.176;2023-02-18T02:28:13;99214.69;;;11.71;77.77
49611;BME280;35515;48.766;9.176;2023-02-18T02:30:58;99209.06;;;11.73;77.92
49611;BME280;35515;48.766;9.176;2023-02-18T02:33:39;99208.91;;;11.81;77.14
49611;BME280;35515;48.766;9.176;2023-02-18T02:36:14;99202.34;;;11.69;78.12
49611;BME280;35515;48.766;9.176;2023-02-18T02:38:43;99202.34;;;11.69;77.82
49611;BME280;35515;48.766;9.176;2023-02-18T02:41:17;99190.06;;;11.73;77.73
49611;BME280;35515;48.766;9.176;2023-02-18T02:43:50;99192.50;;;11.68;78.19
49611;BME280;35515;48.766;9.176;2023-02-18T02:46:18;99189.41;;;11.71;77.61
49611;BME280;35515;48.766;9.176;2023-02-18T02:48:48;99189.03;;;11.96;76.21
49611;BME280;35515;48.766;9.176;2023-02-18T02:51:19;99179.19;;;11.95;76.21
49611;BME280;35515;48.766;9.176;2023-02-18T02:53:49;99172.81;;;12.09;75.48
49611;BME280;35515;48.766;9.176;2023-02-18T02:56:15;99171.78;;;11.88;76.39
49611;BME280;35515;48.766;9.176;2023-02-18T02:58:42;99171.03;;;11.95;75.72
49611;BME280;35515;48.766;9.176;2023-02-18T03:01:14;99172.78;;;12.02;75.47
49611;BME280;35515;48.766;9.176;2023-02-18T03:03:48;99172.38;;;12.06;75.31
49611;BME280;35515;48.766;9.176;2023-02-18T03:09:03;99173.22;;;11.84;76.21
49611;BME280;35515;48.766;9.176;2023-02-18T03:11:34;99183.94;;;11.93;75.81
49611;BME280;35515;48.766;9.176;2023-02-18T03:14:08;99185.16;;;11.90;76.62
49611;BME280;35515;48.766;9.176;2023-02-18T03:16:36;99187.53;;;11.71;76.60
49611;BME280;35515;48.766;9.176;2023-02-18T03:19:09;99181.50;;;11.76;77.10
49611;BME280;35515;48.766;9.176;2023-02-18T03:21:38;99178.13;;;11.74;77.03
49611;BME280;35515;48.766;9.176;2023-02-18T03:24:09;99172.09;;;11.72;77.35
49611;BME280;35515;48.766;9.176;2023-02-18T03:26:39;99163.22;;;11.63;77.71
49611;BME280;35515;48.766;9.176;2023-02-18T03:29:07;99152.94;;;11.80;76.87
49611;BME280;35515;48.766;9.176;2023-02-18T03:31:35;99154.00;;;11.86;76.64
49611;BME280;35515;48.766;9.176;2023-02-18T03:34:04;99160.97;;;11.67;77.57
49611;BME280;35515;48.766;9.176;2023-02-18T03:36:32;99153.84;;;11.66;77.59
49611;BME280;35515;48.766;9.176;2023-02-18T03:39:00;99152.84;;;11.67;77.66
49611;BME280;35515;48.766;9.176;2023-02-18T03:41:29;99155.13;;;11.70;77.88
49611;BME280;35515;48.766;9.176;2023-02-18T03:43:57;99153.72;;;11.74;77.07
49611;BME280;35515;48.766;9.176;2023-02-18T03:46:24;99140.78;;;11.76;77.30
49611;BME280;35515;48.766;9.176;2023-02-18T03:48:51;99150.06;;;11.88;76.39
49611;BME280;35515;48.766;9.176;2023-02-18T03:51:17;99148.13;;;11.76;76.87
49611;BME280;35515;48.766;9.176;2023-02-18T03:53:43;99164.28;;;11.62;77.73
49611;BME280;35515;48.766;9.176;2023-02-18T03:56:10;99156.00;;;11.49;78.15
49611;BME280;35515;48.766;9.176;2023-02-18T03:58:38;99158.66;;;11.42;78.63
49611;BME280;35515;48.766;9.176;2023-02-18T04:01:04;99175.88;;;11.28;79.75
49611;BME280;35515;48.766;9.176;2023-02-18T04:03:31;99163.84;;;11.37;79.41
49611;BME280;35515;48.766;9.176;2023-02-18T04:05:57;99165.75;;;11.65;77.87
49611;BME280;35515;48.766;9.176;2023-02-18T04:08:23;99165.63;;;11.51;78.31
49611;BME280;35515;48.766;9.176;2023-02-18T04:10:50;99172.84;;;11.66;77.67
49611;BME280;35515;48.766;9.176;2023-02-18T04:13:16;99171.78;;;11.38;78.95
49611;BME280;35515;48.766;9.176;2023-02-18T04:15:44;99161.38;;;11.42;78.99
49611;BME280;35515;48.766;9.176;2023-02-18T04:18:10;99154.34;;;11.48;78.66
49611;BME280;35515;48.766;9.176;2023-02-18T04:20:37;99156.66;;;11.51;78.44
49611;BME280;35515;48.766;9.176;2023-02-18T04:23:03;99162.91;;;11.51;78.45
49611;BME280;35515;48.766;9.176;2023-02-18T04:25:30;99158.66;;;11.42;79.03
49611;BME280;35515;48.766;9.176;2023-02-18T04:27:57;99157.81;;;11.42;78.90
49611;BME280;35515;48.766;9.176;2023-02-18T04:30:23;99155.72;;;11.37;79.13
49611;BME280;35515;48.766;9.176;2023-02-18T04:32:51;99136.59;;;11.24;79.63
49611;BME280;35515;48.766;9.176;2023-02-18T04:35:17;99142.78;;;11.39;79.03
49611;BME280;35515;48.766;9.176;2023-02-18T04:37:43;99150.09;;;11.38;78.66
49611;BME280;35515;48.766;9.176;2023-02-18T04:40:10;99147.69;;;11.29;79.04
49611;BME280;35515;48.766;9.176;2023-02-18T04:42:36;99153.69;;;11.24;79.61
49611;BME280;35515;48.766;9.176;2023-02-18T04:45:03;99151.25;;;11.29;79.00
49611;BME280;35515;48.766;9.176;2023-02-18T04:47:29;99157.44;;;11.23;79.63
49611;BME280;35515;48.766;9.176;2023-02-18T04:49:57;99152.75;;;11.32;79.19
49611;BME280;35515;48.766;9.176;2023-02-18T04:52:24;99151.72;;;11.33;78.59
49611;BME280;35515;48.766;9.176;2023-02-18T04:54:50;99157.84;;;11.20;79.69
49611;BME280;35515;48.766;9.176;2023-02-18T04:57:16;99158.94;;;11.26;79.32
49611;BME280;35515;48.766;9.176;2023-02-18T04:59:43;99162.09;;;11.29;78.97
49611;BME280;35515;48.766;9.176;2023-02-18T05:02:09;99156.75;;;11.36;78.46
49611;BME280;35515;48.766;9.176;2023-02-18T05:04:35;99159.53;;;11.21;79.52
49611;BME280;35515;48.766;9.176;2023-02-18T05:07:03;99161.38;;;11.20;79.14
49611;BME280;35515;48.766;9.176;2023-02-18T05:09:29;99149.97;;;11.25;79.05
49611;BME280;35515;48.766;9.176;2023-02-18T05:11:56;99157.91;;;11.27;78.59
49611;BME280;35515;48.766;9.176;2023-02-18T05:14:22;99166.66;;;11.29;78.76
49611;BME280;35515;48.766;9.176;2023-02-18T05:16:48;99155.31;;;11.18;79.18
49611;BME280;35515;48.766;9.176;2023-02-18T05:19:15;99160.47;;;11.13;79.53
49611;BME280;35515;48.766;9.176;2023-02-18T05:21:42;99164.69;;;11.16;79.34
49611;BME280;35515;48.766;9.176;2023-02-18T05:24:09;99166.53;;;11.15;79.67
49611;BME280;35515;48.766;9.176;2023-02-18T05:26:36;99153.50;;;11.04;80.60
49611;BME280;35515;48.766;9.176;2023-02-18T05:29:02;99153.56;;;11.11;80.28
49611;BME280;35515;48.766;9.176;2023-02-18T05:31:29;99151.69;;;11.11;80.25
49611;BME280;35515;48.766;9.176;2023-02-18T05:33:55;99150.06;;;10.95;81.37
49611;BME280;35515;48.766;9.176;2023-02-18T05:36:21;99151.28;;;10.93;81.60
49611;BME280;35515;48.766;9.176;2023-02-18T05:38:48;99153.34;;;10.91;81.77
49611;BME280;35515;48.766;9.176;2023-02-18T05:41:15;99147.72;;;10.92;81.70
49611;BME280;35515;48.766;9.176;2023-02-18T05:43:42;99143.00;;;10.79;82.74
49611;BME280;35515;48.766;9.176;2023-02-18T05:46:26;99150.66;;;11.12;81.44
49611;BME280;35515;48.766;9.176;2023-02-18T05:48:52;99137.69;;;11.08;80.98
49611;BME280;35515;48.766;9.176;2023-02-18T05:51:18;99143.41;;;10.98;81.85
49611;BME280;35515;48.766;9.176;2023-02-18T05:53:45;99140.41;;;11.08;81.24
49611;BME280;35515;48.766;9.176;2023-02-18T05:56:11;99142.59;;;10.97;82.03
49611;BME280;35515;48.766;9.176;2023-02-18T05:58:39;99148.56;;;10.93;82.53
49611;BME280;35515;48.766;9.176;2023-02-18T06:01:05;99139.66;;;10.99;82.27
49611;BME280;35515;48.766;9.176;2023-02-18T06:03:31;99136.00;;;11.07;81.81
49611;BME280;35515;48.766;9.176;2023-02-18T06:05:58;99142.59;;;10.97;82.19
49611;BME280;35515;48.766;9.176;2023-02-18T06:08:24;99138.25;;;11.03;82.21
49611;BME280;35515;48.766;9.176;2023-02-18T06:10:51;99137.63;;;11.01;82.07
49611;BME280;35515;48.766;9.176;2023-02-18T06:13:17;99135.06;;;10.99;82.04
49611;BME280;35515;48.766;9.176;2023-02-18T06:15:45;99136.97;;;10.99;82.06
49611;BME280;35515;48.766;9.176;2023-02-18T06:18:11;99143.34;;;10.91;82.68
49611;BME280;35515;48.766;9.176;2023-02-18T06:20:37;99146.13;;;10.98;82.23
49611;BME280;35515;48.766;9.176;2023-02-18T06:23:04;99146.72;;;10.93;82.71
49611;BME280;35515;48.766;9.176;2023-02-18T06:25:30;99145.41;;;10.89;82.72
49611;BME280;35515;48.766;9.176;2023-02-18T06:27:56;99139.78;;;10.91;82.73
49611;BME280;35515;48.766;9.176;2023-02-18T06:30:23;99143.03;;;11.01;82.28
49611;BME280;35515;48.766;9.176;2023-02-18T06:32:50;99137.09;;;10.91;83.10
49611;BME280;35515;48.766;9.176;2023-02-18T06:35:17;99146.25;;;10.90;82.93
49611;BME280;35515;48.766;9.176;2023-02-18T06:37:43;99142.19;;;11.00;82.17
49611;BME280;35515;48.766;9.176;2023-02-18T06:40:10;99140.91;;;10.96;82.63
49611;BME280;35515;48.766;9.176;2023-02-18T06:42:37;99148.41;;;10.94;82.56
49611;BME280;35515;48.766;9.176;2023-02-18T06:45:03;99137.97;;;10.98;82.79
49611;BME280;35515;48.766;9.176;2023-02-18T06:47:30;99140.13;;;11.02;82.33
49611;BME280;35515;48.766;9.176;2023-02-18T06:49:58;99146.72;;;10.93;83.12
49611;BME280;35515;48.766;9.176;2023-02-18T06:52:24;99143.34;;;10.91;82.79
49611;BME280;35515;48.766;9.176;2023-02-18T06:54:51;99146.25;;;10.90;82.98
49611;BME280;35515;48.766;9.176;2023-02-18T06:57:17;99152.97;;;10.94;83.23
49611;BME280;35515;48.766;9.176;2023-02-18T06:59:43;99145.03;;;10.92;82.95
49611;BME280;35515;48.766;9.176;2023-02-18T07:02:10;99152.56;;;10.97;82.77
49611;BME280;35515;48.766;9.176;2023-02-18T07:04:37;99144.91;;;11.00;82.84
49611;BME280;35515;48.766;9.176;2023-02-18T07:07:05;99153.09;;;11.07;82.50
49611;BME280;35515;48.766;9.176;2023-02-18T07:09:31;99157.78;;;11.13;81.72
49611;BME280;35515;48.766;9.176;2023-02-18T07:11:58;99144.72;;;11.24;81.53
49611;BME280;35515;48.766;9.176;2023-02-18T07:14:24;99136.66;;;11.30;80.99
49611;BME280;35515;48.766;9.176;2023-02-18T07:16:52;99143.28;;;11.49;79.44
49611;BME280;35515;48.766;9.176;2023-02-18T07:19:18;99136.47;;;11.32;80.38
49611;BME280;35515;48.766;9.176;2023-02-18T07:21:44;99133.44;;;11.20;81.15
49611;BME280;35515;48.766;9.176;2023-02-18T07:24:12;99136.59;;;11.24;81.44
49611;BME280;35515;48.766;9.176;2023-02-18T07:26:38;99138.78;;;11.35;80.30
49611;BME280;35515;48.766;9.176;2023-02-18T07:29:05;99143.81;;;11.38;80.50
49611;BME280;35515;48.766;9.176;2023-02-18T07:31:31;99133.34;;;11.35;80.42
49611;BME280;35515;48.766;9.176;2023-02-18T07:33:57;99131.72;;;11.41;80.17
49611;BME280;35515;48.766;9.176;2023-02-18T07:36:24;99129.72;;;11.49;79.41
49611;BME280;35515;48.766;9.176;2023-02-18T07:38:50;99125.31;;;11.48;79.73
49611;BME280;35515;48.766;9.176;2023-02-18T07:41:19;99123.63;;;11.47;79.85
49611;BME280;35515;48.766;9.176;2023-02-18T07:43:45;99112.91;;;11.61;79.41
49611;BME280;35515;48.766;9.176;2023-02-18T07:46:12;99117.16;;;11.70;78.50
49611;BME280;35515;48.766;9.176;2023-02-18T07:48:38;99111.59;;;11.78;78.05
49611;BME280;35515;48.766;9.176;2023-02-18T07:51:04;99112.31;;;11.65;79.09
49611;BME280;35515;48.766;9.176;2023-02-18T07:53:31;99112.50;;;11.92;77.64
49611;BME280;35515;48.766;9.176;2023-02-18T07:55:57;99107.78;;;11.73;78.30
49611;BME280;35515;48.766;9.176;2023-02-18T07:58:26;99102.09;;;11.67;78.58
49611;BME280;35515;48.766;9.176;2023-02-18T08:00:53;99096.63;;;11.89;77.55
49611;BME280;35515;48.766;9.176;2023-02-18T08:03:19;99108.66;;;11.80;77.85
49611;BME280;35515;48.766;9.176;2023-02-18T08:05:47;99104.72;;;11.82;77.92
49611;BME280;35515;48.766;9.176;2023-02-18T08:08:13;99114.53;;;11.83;77.77
49611;BME280;35515;48.766;9.176;2023-02-18T08:10:40;99114.78;;;11.88;76.99
49611;BME280;35515;48.766;9.176;2023-02-18T08:13:07;99109.25;;;11.75;77.87
49611;BME280;35515;48.766;9.176;2023-02-18T08:15:34;99115.44;;;11.91;77.02
49611;BME280;35515;48.766;9.176;2023-02-18T08:18:01;99122.25;;;12.08;76.47
49611;BME280;35515;48.766;9.176;2023-02-18T08:20:27;99117.25;;;11.83;77.42
49611;BME280;35515;48.766;9.176;2023-02-18T08:22:53;99125.13;;;12.00;76.17
49611;BME280;35515;48.766;9.176;2023-02-18T08:25:20;99133.91;;;12.02;76.64
49611;BME280;35515;48.766;9.176;2023-02-18T08:27:46;99126.00;;;12.07;76.31
49611;BME280;35515;48.766;9.176;2023-02-18T08:30:13;99127.47;;;12.10;76.02
49611;BME280;35515;48.766;9.176;2023-02-18T08:32:40;99113.94;;;12.16;75.40
49611;BME280;35515;48.766;9.176;2023-02-18T08:35:09;99117.59;;;12.02;76.27
49611;BME280;35515;48.766;9.176;2023-02-18T08:37:35;99117.56;;;11.95;76.88
49611;BME280;35515;48.766;9.176;2023-02-18T08:40:04;99107.56;;;11.96;76.28
49611;BME280;35515;48.766;9.176;2023-02-18T08:42:31;99105.09;;;12.01;75.92
49611;BME280;35515;48.766;9.176;2023-02-18T08:44:57;99111.94;;;11.97;75.77
49611;BME280;35515;48.766;9.176;2023-02-18T08:47:24;99107.81;;;12.01;76.12
49611;BME280;35515;48.766;9.176;2023-02-18T08:49:52;99115.28;;;11.99;76.03
49611;BME280;35515;48.766;9.176;2023-02-18T08:52:19;99111.25;;;12.23;74.48
49611;BME280;35515;48.766;9.176;2023-02-18T08:54:45;99110.34;;;12.09;75.04
49611;BME280;35515;48.766;9.176;2023-02-18T08:57:11;99108.06;;;12.13;75.06
49611;BME280;35515;48.766;9.176;2023-02-18T08:59:38;99107.66;;;12.16;74.75
49611;BME280;35515;48.766;9.176;2023-02-18T09:02:04;99098.66;;;12.15;75.03
49611;BME280;35515;48.766;9.176;2023-02-18T09:04:31;99104.84;;;12.37;73.87
49611;BME280;35515;48.766;9.176;2023-02-18T09:06:59;99092.28;;;12.36;73.48
49611;BME280;35515;48.766;9.176;2023-02-18T09:09:25;99097.75;;;12.43;73.10
49611;BME280;35515;48.766;9.176;2023-02-18T09:11:52;99098.63;;;12.50;72.51
49611;BME280;35515;48.766;9.176;2023-02-18T09:14:18;99094.00;;;12.44;73.09
49611;BME280;35515;48.766;9.176;2023-02-18T09:16:45;99088.72;;;12.29;73.28
49611;BME280;35515;48.766;9.176;2023-02-18T09:19:11;99098.09;;;12.20;73.79
49611;BME280;35515;48.766;9.176;2023-02-18T09:21:38;99092.31;;;12.43;72.55
49611;BME280;35515;48.766;9.176;2023-02-18T09:24:06;99080.25;;;12.59;71.80
49611;BME280;35515;48.766;9.176;2023-02-18T09:26:33;99079.59;;;12.44;72.33
49611;BME280;35515;48.766;9.176;2023-02-18T09:29:00;99085.38;;;12.34;73.17
49611;BME280;35515;48.766;9.176;2023-02-18T09:31:27;99072.03;;;12.39;72.50
49611;BME280;35515;48.766;9.176;2023-02-18T09:33:54;99069.78;;;12.49;72.05
49611;BME280;35515;48.766;9.176;2023-02-18T09:36:21;99069.38;;;12.52;71.62
49611;BME280;35515;48.766;9.176;2023-02-18T09:38:47;99071.69;;;12.49;72.20
49611;BME280;35515;48.766;9.176;2023-02-18T09:41:17;99065.16;;;12.43;72.28
49611;BME280;35515;48.766;9.176;2023-02-18T09:43:48;99079.41;;;12.52;71.72
49611;BME280;35515;48.766;9.176;2023-02-18T09:46:17;99069.00;;;12.62;71.03
49611;BME280;35515;48.766;9.176;2023-02-18T09:48:45;99060.22;;;12.67;71.16
49611;BME280;35515;48.766;9.176;2023-02-18T09:51:12;99064.81;;;12.60;71.11
49611;BME280;35515;48.766;9.176;2023-02-18T09:53:39;99065.22;;;12.63;70.83
49611;BME280;35515;48.766;9.176;2023-02-18T09:56:08;99059.78;;;12.70;70.83
49611;BME280;35515;48.766;9.176;2023-02-18T09:58:38;99060.63;;;12.64;71.07
49611;BME280;35515;48.766;9.176;2023-02-18T10:01:09;99073.22;;;12.78;70.37
49611;BME280;35515;48.766;9.176;2023-02-18T10:03:37;99075.94;;;12.78;70.39
49611;BME280;35515;48.766;9.176;2023-02-18T10:06:05;99070.09;;;12.81;70.26
49611;BME280;35515;48.766;9.176;2023-02-18T10:08:33;99066.13;;;12.84;70.10
49611;BME280;35515;48.766;9.176;2023-02-18T10:11:00;99059.38;;;12.60;71.15
49611;BME280;35515;48.766;9.176;2023-02-18T10:13:27;99062.31;;;12.65;71.23
49611;BME280;35515;48.766;9.176;2023-02-18T10:15:55;99064.66;;;12.88;69.94
49611;BME280;35515;48.766;9.176;2023-02-18T10:18:24;99071.75;;;12.82;69.75
49611;BME280;35515;48.766;9.176;2023-02-18T10:20:52;99065.91;;;12.79;70.09
49611;BME280;35515;48.766;9.176;2023-02-18T10:23:21;99073.88;;;12.94;69.68
49611;BME280;35515;48.766;9.176;2023-02-18T10:25:48;99068.19;;;12.82;70.11
49611;BME280;35515;48.766;9.176;2023-02-18T10:28:15;99070.53;;;12.92;69.65
49611;BME280;35515;48.766;9.176;2023-02-18T10:30:45;99073.03;;;12.86;69.71
49611;BME280;35515;48.766;9.176;2023-02-18T10:33:22;99068.44;;;12.94;69.17
49611;BME280;35515;48.766;9.176;2023-02-18T10:35:53;99074.09;;;12.99;68.84
49611;BME280;35515;48.766;9.176;2023-02-18T10:38:24;99071.56;;;12.91;69.22
49611;BME280;35515;48.766;9.176;2023-02-18T10:40:56;99063.19;;;12.85;69.52
49611;BME280;35515;48.766;9.176;2023-02-18T10:43:28;99061.31;;;13.06;68.02
49611;BME280;35515;48.766;9.176;2023-02-18T10:45:57;99064.47;;;13.03;68.38
49611;BME280;35515;48.766;9.176;2023-02-18T10:48:34;99057.34;;;12.95;69.05
49611;BME280;35515;48.766;9.176;2023-02-18T10:51:09;99056.50;;;12.88;69.18
49611;BME280;35515;48.766;9.176;2023-02-18T10:53:38;99056.09;;;13.04;68.28
49611;BME280;35515;48.766;9.176;2023-02-18T10:56:07;99055.88;;;12.93;68.50
49611;BME280;35515;48.766;9.176;2023-02-18T10:58:34;99059.88;;;13.10;67.53
49611;BME280;35515;48.766;9.176;2023-02-18T11:01:02;99049.84;;;13.04;68.01
49611;BME280;35515;48.766;9.176;2023-02-18T11:03:41;99043.75;;;13.15;67.76
49611;BME280;35515;48.766;9.176;2023-02-18T11:06:14;99055.72;;;13.28;66.79
49611;BME280;35515;48.766;9.176;2023-02-18T11:08:42;99045.22;;;13.11;67.42
49611;BME280;35515;48.766;9.176;2023-02-18T11:11:12;99049.41;;;13.07;67.69
49611;BME280;35515;48.766;9.176;2023-02-18T11:13:40;99030.34;;;13.00;67.95
49611;BME280;35515;48.766;9.176;2023-02-18T11:16:06;99041.88;;;13.09;67.07
49611;BME280;35515;48.766;9.176;2023-02-18T11:18:36;99034.97;;;13.00;68.18
49611;BME280;35515;48.766;9.176;2023-02-18T11:21:04;99029.97;;;13.03;68.06
49611;BME280;35515;48.766;9.176;2023-02-18T11:23:31;99032.03;;;13.08;67.15
49611;BME280;35515;48.766;9.176;2023-02-18T11:26:11;99031.41;;;13.13;67.00
49611;BME280;35515;48.766;9.176;2023-02-18T11:28:41;99020.94;;;13.23;66.60
49611;BME280;35515;48.766;9.176;2023-02-18T11:31:10;99010.72;;;13.25;66.46
49611;BME280;35515;48.766;9.176;2023-02-18T11:33:41;99015.13;;;13.19;66.20
49611;BME280;35515;48.766;9.176;2023-02-18T11:36:17;99016.97;;;13.12;66.29
49611;BME280;35515;48.766;9.176;2023-02-18T11:38:45;99015.13;;;13.19;66.07
49611;BME280;35515;48.766;9.176;2023-02-18T11:41:13;99023.28;;;13.40;63.67
49611;BME280;35515;48.766;9.176;2023-02-18T11:43:40;99011.75;;;13.31;64.06
49611;BME280;35515;48.766;9.176;2023-02-18T11:46:08;99011.16;;;13.42;63.23
49611;BME280;35515;48.766;9.176;2023-02-18T11:48:35;99000.66;;;13.32;64.34
49611;BME280;35515;48.766;9.176;2023-02-18T11:51:01;99010.91;;;13.30;64.40
49611;BME280;35515;48.766;9.176;2023-02-18T11:53:31;99002.13;;;13.48;63.23
49611;BME280;35515;48.766;9.176;2023-02-18T11:55:58;98987.00;;;13.66;62.34
49611;BME280;35515;48.766;9.176;2023-02-18T11:58:25;98990.78;;;13.71;62.49
49611;BME280;35515;48.766;9.176;2023-02-18T12:00:53;98989.53;;;13.54;62.73
49611;BME280;35515;48.766;9.176;2023-02-18T12:03:24;98998.78;;;13.46;63.12
49611;BME280;35515;48.766;9.176;2023-02-18T12:05:54;98987.03;;;13.52;62.97
49611;BME280;35515;48.766;9.176;2023-02-18T12:08:23;98977.41;;;13.57;62.71
49611;BME280;35515;48.766;9.176;2023-02-18T12:10:52;98985.56;;;13.57;62.48
49611;BME280;35515;48.766;9.176;2023-02-18T12:13:21;98978.47;;;13.56;62.21
49611;BME280;35515;48.766;9.176;2023-02-18T12:15:51;98983.66;;;13.70;62.05
49611;BME280;35515;48.766;9.176;2023-02-18T12:21:09;98976.50;;;13.76;61.51
49611;BME280;35515;48.766;9.176;2023-02-18T12:23:41;98977.34;;;13.70;61.66
49611;BME280;35515;48.766;9.176;2023-02-18T12:26:17;98974.25;;;13.60;62.34
49611;BME280;35515;48.766;9.176;2023-02-18T12:28:50;98978.81;;;13.79;61.34
49611;BME280;35515;48.766;9.176;2023-02-18T12:34:11;98974.84;;;13.75;60.22
49611;BME280;35515;48.766;9.176;2023-02-18T12:36:47;98968.75;;;13.80;60.11
49611;BME280;35515;48.766;9.176;2023-02-18T12:39:21;98981.31;;;13.87;60.24
49611;BME280;35515;48.766;9.176;2023-02-18T12:42:01;98973.97;;;13.88;59.73
49611;BME280;35515;48.766;9.176;2023-02-18T12:44:33;98965.16;;;13.86;59.05
49611;BME280;35515;48.766;9.176;2023-02-18T12:47:04;98969.38;;;13.82;59.88
49611;BME280;35515;48.766;9.176;2023-02-18T12:49:58;98974.38;;;13.92;59.34
49611;BME280;35515;48.766;9.176;2023-02-18T12:52:28;98963.00;;;14.01;58.22
49611;BME280;35515;48.766;9.176;2023-02-18T12:55:04;98958.38;;;14.02;61.28
49611;BME280;35515;48.766;9.176;2023-02-18T12:57:39;98963.41;;;14.12;59.61
49611;BME280;35515;48.766;9.176;2023-02-18T13:00:20;98967.78;;;14.19;58.46
49611;BME280;35515;48.766;9.176;2023-02-18T13:03:00;98957.25;;;14.23;58.32
49611;BME280;35515;48.766;9.176;2023-02-18T13:05:31;98964.19;;;14.19;58.28
49611;BME280;35515;48.766;9.176;2023-02-18T13:08:06;98973.66;;;14.10;58.68
49611;BME280;35515;48.766;9.176;2023-02-18T13:10:41;98961.06;;;14.15;58.42
49611;BME280;35515;48.766;9.176;2023-02-18T13:13:12;98955.44;;;14.10;57.79
49611;BME280;35515;48.766;9.176;2023-02-18T13:15:41;98954.34;;;14.18;57.57
49611;BME280;35515;48.766;9.176;2023-02-18T13:18:09;98958.78;;;14.12;58.41
49611;BME280;35515;48.766;9.176;2023-02-18T13:20:38;98947.94;;;13.99;57.42